createdAt,value
2023-04-18T00:04:52.925Z,99647.91
2023-04-18T00:14:55.538Z,99656.97
2023-04-18T00:24:58.017Z,99665.78
2023-04-18T00:35:00.717Z,99657.72
2023-04-18T00:45:03.322Z,99647.22
2023-04-18T00:55:07.766Z,99646.19
2023-04-18T01:05:10.450Z,99646.19
2023-04-18T01:15:13.439Z,99667.22
2023-04-18T01:25:15.892Z,99655.84
2023-04-18T01:35:18.451Z,99658.69
2023-04-18T01:45:21.067Z,99651.75
2023-04-18T01:55:23.597Z,99635.78
2023-04-18T02:05:28.892Z,99644.66
2023-04-18T02:15:31.482Z,99651.66
2023-04-18T02:25:34.011Z,99663.19
2023-04-18T02:35:37.802Z,99661.47
2023-04-18T02:45:41.616Z,99665.06
2023-04-18T02:55:44.508Z,99673.28
2023-04-18T03:05:47.208Z,99679.31
2023-04-18T03:15:49.998Z,99675.75
2023-04-18T03:25:53.080Z,99675.84
2023-04-18T03:35:56.654Z,99664.97
2023-04-18T03:45:59.625Z,99666.91
2023-04-18T03:56:03.556Z,99670.88
2023-04-18T04:06:22.144Z,99686.00
2023-04-18T04:16:25.041Z,99691.16
2023-04-18T04:26:30.784Z,99704.41
2023-04-18T04:36:48.246Z,99713.72
2023-04-18T04:46:50.798Z,99731.97
2023-04-18T04:56:57.784Z,99748.00
2023-04-18T05:07:01.500Z,99745.66
2023-04-18T05:17:04.407Z,99744.72
2023-04-18T05:27:07.685Z,99747.38
2023-04-18T05:37:10.817Z,99754.97
2023-04-18T05:47:13.394Z,99752.28
2023-04-18T05:57:16.481Z,99754.47
2023-04-18T06:07:19.944Z,99749.13
2023-04-18T06:17:23.303Z,99752.03
2023-04-18T06:27:31.427Z,99761.59
2023-04-18T06:37:34.989Z,99762.22
2023-04-18T06:47:39.770Z,99783.19
2023-04-18T06:57:43.567Z,99781.00
2023-04-18T07:07:46.194Z,99785.44
2023-04-18T07:17:48.983Z,99779.28
2023-04-18T07:27:51.719Z,99800.75
2023-04-18T07:37:54.547Z,99806.59
2023-04-18T07:47:57.106Z,99820.53
2023-04-18T07:57:59.670Z,99820.31
2023-04-18T08:08:02.387Z,99827.22
2023-04-18T08:18:05.258Z,99846.16
2023-04-18T08:28:08.496Z,99848.72
2023-04-18T08:38:15.178Z,99854.91
2023-04-18T08:48:18.556Z,99858.00
2023-04-18T08:58:24.528Z,99858.16
2023-04-18T09:08:29.130Z,99874.94
2023-04-18T09:18:32.534Z,99872.81
2023-04-18T09:28:37.520Z,99875.56
2023-04-18T09:38:41.274Z,99872.50
2023-04-18T09:48:44.022Z,99873.69
2023-04-18T09:58:51.798Z,99859.03
2023-04-18T10:08:55.171Z,99877.97
2023-04-18T10:18:58.641Z,99858.28
2023-04-18T10:29:06.067Z,99864.28
2023-04-18T10:39:27.879Z,99859.53
2023-04-18T10:49:40.038Z,99866.28
2023-04-18T10:59:57.055Z,99857.75
2023-04-18T11:10:16.288Z,99850.06
2023-04-18T11:20:20.513Z,99854.53
2023-04-18T11:30:23.213Z,99849.91
2023-04-18T11:40:26.149Z,99866.78
2023-04-18T11:50:37.762Z,99867.94
2023-04-18T12:00:42.234Z,99883.06
2023-04-18T12:10:52.352Z,99870.84
2023-04-18T12:20:54.865Z,99881.25
2023-04-18T12:30:57.859Z,99886.41
2023-04-18T12:41:00.441Z,99877.75
2023-04-18T12:51:02.893Z,99876.16
2023-04-18T13:01:05.383Z,99881.56
2023-04-18T13:11:08.016Z,99892.38
2023-04-18T13:21:10.897Z,99883.69
2023-04-18T13:31:15.053Z,99884.53
2023-04-18T13:41:18.923Z,99893.00
2023-04-18T13:51:21.426Z,99889.75
2023-04-18T14:01:24.764Z,99901.78
2023-04-18T14:11:27.661Z,99893.38
2023-04-18T14:21:31.226Z,99893.31
2023-04-18T14:31:34.241Z,99890.84
2023-04-18T14:41:36.920Z,99897.59
2023-04-18T14:51:39.459Z,99900.78
2023-04-18T15:01:42.019Z,99900.56
2023-04-18T15:11:44.517Z,99892.00
2023-04-18T15:21:46.951Z,99890.72
2023-04-18T15:31:49.599Z,99883.25
2023-04-18T15:41:56.611Z,99882.59
2023-04-18T15:51:59.419Z,99891.78
2023-04-18T16:02:02.215Z,99889.34
2023-04-18T16:12:05.853Z,99891.47
2023-04-18T16:22:08.393Z,99900.94
2023-04-18T16:32:11.231Z,99907.25
2023-04-18T16:42:15.475Z,99915.13
2023-04-18T16:52:18.456Z,99908.00
2023-04-18T17:02:21.228Z,99920.25
2023-04-18T17:12:23.764Z,99910.03
2023-04-18T17:22:26.418Z,99915.13
2023-04-18T17:32:29.135Z,99915.75
2023-04-18T17:42:31.691Z,99923.56
2023-04-18T17:52:34.338Z,99922.50
2023-04-18T18:02:37.582Z,99933.56
2023-04-18T18:12:41.052Z,99937.28
2023-04-18T18:22:44.588Z,99937.13
2023-04-18T18:32:47.613Z,99961.69
2023-04-18T18:42:51.526Z,99974.16
2023-04-18T18:52:54.033Z,99994.56
2023-04-18T19:02:56.972Z,100012.97
2023-04-18T19:13:00.475Z,100020.09
2023-04-18T19:23:03.559Z,100031.53
2023-04-18T19:33:06.711Z,100026.25
2023-04-18T19:43:09.573Z,100029.69
2023-04-18T19:53:12.357Z,100027.81
2023-04-18T20:03:17.052Z,100024.38
2023-04-18T20:13:19.927Z,100020.81
2023-04-18T20:23:22.707Z,100007.06
2023-04-18T20:33:25.473Z,100005.75
2023-04-18T20:43:28.511Z,100005.19
2023-04-18T20:53:31.177Z,100003.72
2023-04-18T21:03:34.218Z,99989.56
2023-04-18T21:13:37.165Z,99989.63
2023-04-18T21:23:43.626Z,99988.34
2023-04-18T21:33:46.088Z,99995.72
2023-04-18T21:43:48.993Z,100001.50
2023-04-18T21:53:52.306Z,99995.47
2023-04-18T22:03:54.911Z,99989.69
2023-04-18T22:13:58.244Z,99979.22
2023-04-18T22:24:00.709Z,99973.97
2023-04-18T22:34:03.234Z,99985.06
2023-04-18T22:44:06.006Z,99970.81
2023-04-18T22:54:08.495Z,99964.41
2023-04-18T23:04:11.264Z,99959.44
2023-04-18T23:14:15.908Z,99958.78
2023-04-18T23:24:18.483Z,99947.22
2023-04-18T23:34:20.984Z,99940.88
2023-04-18T23:44:23.418Z,99926.53
2023-04-18T23:54:25.888Z,99920.75
